createdAt,value
2022-07-29T00:00:30.955Z,50.834816
2022-07-29T00:01:30.809Z,50.834831
2022-07-29T00:02:30.820Z,50.834827
2022-07-29T00:03:30.976Z,50.834862
2022-07-29T00:04:30.829Z,50.834862
2022-07-29T00:05:30.830Z,50.834824
2022-07-29T00:06:30.823Z,50.834805
2022-07-29T00:07:30.772Z,50.834797
2022-07-29T00:08:30.803Z,50.834816
2022-07-29T00:09:30.729Z,50.834835
2022-07-29T00:10:30.759Z,50.834869
2022-07-29T00:11:30.741Z,50.834862
2022-07-29T00:12:30.724Z,50.834843
2022-07-29T00:13:32.137Z,50.834839
2022-07-29T00:14:30.689Z,50.834873
2022-07-29T00:15:30.695Z,50.834858
2022-07-29T00:16:30.784Z,50.834854
2022-07-29T00:17:30.717Z,50.834808
2022-07-29T00:18:30.685Z,50.834816
2022-07-29T00:19:30.736Z,50.834808
2022-07-29T00:20:30.674Z,50.834812
2022-07-29T00:21:30.630Z,50.834839
2022-07-29T00:22:30.639Z,50.834820
2022-07-29T00:23:32.670Z,50.834820
2022-07-29T00:24:31.697Z,50.834843
2022-07-29T00:25:30.590Z,50.834812
2022-07-29T00:26:30.631Z,50.834785
2022-07-29T00:27:30.636Z,50.834820
2022-07-29T00:28:30.634Z,50.834789
2022-07-29T00:29:34.038Z,50.834812
2022-07-29T00:30:31.727Z,50.834839
2022-07-29T00:31:30.777Z,50.834827
2022-07-29T00:32:30.578Z,50.834824
2022-07-29T00:33:30.557Z,50.834839
2022-07-29T00:34:30.589Z,50.834820
2022-07-29T00:35:30.528Z,50.834793
2022-07-29T00:36:30.534Z,50.834812
2022-07-29T00:37:30.519Z,50.834820
2022-07-29T00:38:30.531Z,50.834820
2022-07-29T00:39:30.504Z,50.834820
2022-07-29T00:40:30.488Z,50.834831
2022-07-29T00:41:30.470Z,50.834820
2022-07-29T00:42:30.452Z,50.834797
2022-07-29T00:43:30.474Z,50.834831
2022-07-29T00:44:30.499Z,50.834820
2022-07-29T00:45:30.467Z,50.834778
2022-07-29T00:46:30.492Z,50.834812
2022-07-29T00:47:30.473Z,50.834812
2022-07-29T00:48:30.430Z,50.834824
2022-07-29T00:49:30.459Z,50.834835
2022-07-29T00:50:30.409Z,50.834846
2022-07-29T00:51:30.395Z,50.834812
2022-07-29T00:52:30.405Z,50.834835
2022-07-29T00:53:30.396Z,50.834835
2022-07-29T00:54:30.409Z,50.834835
2022-07-29T00:55:30.356Z,50.834843
2022-07-29T00:56:30.399Z,50.834854
2022-07-29T00:57:30.341Z,50.834824
2022-07-29T00:58:30.343Z,50.834820
2022-07-29T00:59:34.669Z,50.834808
2022-07-29T01:00:31.485Z,50.834808
2022-07-29T01:01:30.483Z,50.834839
2022-07-29T01:02:30.369Z,50.834816
2022-07-29T01:03:30.304Z,50.834805
2022-07-29T01:04:30.353Z,50.834793
2022-07-29T01:05:50.143Z,50.834797
2022-07-29T01:06:31.281Z,50.834812
2022-07-29T01:07:30.279Z,50.834824
2022-07-29T01:08:30.273Z,50.834816
2022-07-29T01:09:42.775Z,50.834797
2022-07-29T01:10:31.271Z,50.834808
2022-07-29T01:11:30.275Z,50.834789
2022-07-29T01:12:30.230Z,50.834797
2022-07-29T01:13:30.213Z,50.834827
2022-07-29T01:14:30.250Z,50.834816
2022-07-29T01:15:30.258Z,50.834816
2022-07-29T01:16:30.269Z,50.834835
2022-07-29T01:17:30.268Z,50.834839
2022-07-29T01:18:30.192Z,50.834839
2022-07-29T01:19:31.194Z,50.834824
2022-07-29T01:20:31.516Z,50.834820
2022-07-29T01:21:30.182Z,50.834816
2022-07-29T01:22:30.193Z,50.834808
2022-07-29T01:23:30.153Z,50.834827
2022-07-29T01:24:30.154Z,50.834812
2022-07-29T01:25:30.169Z,50.834854
2022-07-29T01:26:30.179Z,50.834839
2022-07-29T01:27:30.149Z,50.834808
2022-07-29T01:28:30.102Z,50.834846
2022-07-29T01:29:38.568Z,50.834846
2022-07-29T01:30:31.130Z,50.834820
2022-07-29T01:32:02.035Z,50.834820
2022-07-29T01:32:30.157Z,50.834858
2022-07-29T01:33:30.063Z,50.834850
2022-07-29T01:34:30.040Z,50.834854
2022-07-29T01:35:30.045Z,50.834805
2022-07-29T01:36:30.034Z,50.834839
2022-07-29T01:37:30.038Z,50.834827
2022-07-29T01:38:30.016Z,50.834816
2022-07-29T01:39:30.020Z,50.834831
2022-07-29T01:40:30.007Z,50.834835
2022-07-29T01:41:30.040Z,50.834835
2022-07-29T01:42:29.987Z,50.834831
2022-07-29T01:43:30.055Z,50.834839
2022-07-29T01:44:29.969Z,50.834846
2022-07-29T02:05:42.447Z,50.834835
2022-07-29T02:06:42.443Z,50.834862
2022-07-29T02:07:42.393Z,50.834873
2022-07-29T02:08:42.406Z,50.834846
2022-07-29T02:09:42.425Z,50.834835
2022-07-29T02:10:42.389Z,50.834824
2022-07-29T02:11:42.424Z,50.834839
2022-07-29T02:12:42.392Z,50.834824
2022-07-29T02:13:42.371Z,50.834808
2022-07-29T02:14:42.421Z,50.834812
2022-07-29T02:15:42.490Z,50.834824
2022-07-29T02:16:42.331Z,50.834816
2022-07-29T02:17:42.331Z,50.834805
2022-07-29T02:18:42.320Z,50.834812
2022-07-29T02:19:42.349Z,50.834820
2022-07-29T02:20:42.361Z,50.834816
2022-07-29T02:21:42.292Z,50.834805
2022-07-29T02:22:42.318Z,50.834785
2022-07-29T02:23:44.983Z,50.834778
2022-07-29T02:24:43.254Z,50.834797
2022-07-29T02:25:42.287Z,50.834793
2022-07-29T02:26:42.263Z,50.834785
2022-07-29T02:27:42.255Z,50.834785
2022-07-29T02:28:42.245Z,50.834782
2022-07-29T02:29:42.245Z,50.834793
2022-07-29T02:30:42.949Z,50.834805
2022-07-29T02:31:42.288Z,50.834805
2022-07-29T02:32:42.206Z,50.834816
2022-07-29T02:33:42.189Z,50.834812
2022-07-29T02:34:42.218Z,50.834793
2022-07-29T02:35:42.213Z,50.834789
2022-07-29T02:36:42.201Z,50.834774
2022-07-29T02:37:42.248Z,50.834789
2022-07-29T02:38:42.144Z,50.834805
2022-07-29T02:39:42.178Z,50.834789
2022-07-29T02:40:42.138Z,50.834805
2022-07-29T02:41:42.136Z,50.834770
2022-07-29T02:42:42.151Z,50.834778
2022-07-29T02:43:42.113Z,50.834763
2022-07-29T02:44:42.226Z,50.834763
2022-07-29T02:45:42.188Z,50.834755
2022-07-29T02:46:42.143Z,50.834763
2022-07-29T02:47:42.320Z,50.834778
2022-07-29T02:48:42.127Z,50.834797
2022-07-29T02:49:42.111Z,50.834820
2022-07-29T02:50:42.154Z,50.834808
2022-07-29T02:51:44.813Z,50.834789
2022-07-29T02:52:42.098Z,50.834770
2022-07-29T02:53:42.042Z,50.834774
2022-07-29T02:54:42.036Z,50.834778
2022-07-29T02:55:42.156Z,50.834747
2022-07-29T02:56:42.025Z,50.834751
2022-07-29T02:57:55.367Z,50.834759
2022-07-29T02:58:43.020Z,50.834770
2022-07-29T02:59:42.004Z,50.834747
2022-07-29T03:00:42.118Z,50.834763
2022-07-29T03:01:42.072Z,50.834778
2022-07-29T03:02:41.980Z,50.834782
2022-07-29T03:03:41.968Z,50.834782
2022-07-29T03:04:42.034Z,50.834789
2022-07-29T03:05:42.999Z,50.834782
2022-07-29T03:06:41.958Z,50.834763
2022-07-29T03:07:41.952Z,50.834766
2022-07-29T03:08:41.945Z,50.834778
2022-07-29T03:09:41.930Z,50.834766
2022-07-29T03:10:42.003Z,50.834770
2022-07-29T03:11:49.865Z,50.834782
2022-07-29T03:12:42.949Z,50.834789
2022-07-29T03:13:42.465Z,50.834793
2022-07-29T03:14:41.919Z,50.834774
2022-07-29T03:15:41.960Z,50.834774
2022-07-29T03:16:41.881Z,50.834778
2022-07-29T03:17:41.864Z,50.834785
2022-07-29T03:18:41.882Z,50.834797
2022-07-29T03:19:41.859Z,50.834782
2022-07-29T03:20:41.836Z,50.834778
2022-07-29T03:21:41.834Z,50.834778
2022-07-29T03:22:41.834Z,50.834766
2022-07-29T03:23:41.863Z,50.834782
2022-07-29T03:24:41.823Z,50.834778
2022-07-29T03:25:41.813Z,50.834774
2022-07-29T03:26:41.798Z,50.834770
2022-07-29T03:27:41.836Z,50.834759
2022-07-29T03:28:41.790Z,50.834766
2022-07-29T03:29:46.312Z,50.834774
2022-07-29T03:30:42.942Z,50.834789
2022-07-29T03:31:41.758Z,50.834766
2022-07-29T03:32:41.775Z,50.834770
2022-07-29T03:33:41.742Z,50.834770
2022-07-29T03:34:41.764Z,50.834736
2022-07-29T03:35:41.751Z,50.834736
2022-07-29T03:36:41.717Z,50.834732
2022-07-29T03:37:41.762Z,50.834724
2022-07-29T03:38:41.754Z,50.834763
2022-07-29T03:39:41.716Z,50.834755
2022-07-29T03:40:41.689Z,50.834763
2022-07-29T03:41:41.716Z,50.834770
2022-07-29T03:42:41.678Z,50.834774
2022-07-29T03:43:49.520Z,50.834778
2022-07-29T03:44:42.670Z,50.834770
2022-07-29T03:45:41.673Z,50.834785
2022-07-29T04:06:39.091Z,50.834717
2022-07-29T04:07:39.062Z,50.834690
2022-07-29T04:08:39.081Z,50.834805
2022-07-29T04:09:39.034Z,50.834797
2022-07-29T04:10:39.041Z,50.834789
2022-07-29T04:12:01.704Z,50.834785
2022-07-29T04:12:40.014Z,50.834789
2022-07-29T04:13:39.045Z,50.834770
2022-07-29T04:14:38.999Z,50.834774
2022-07-29T04:15:39.043Z,50.834763
2022-07-29T04:16:39.000Z,50.834755
2022-07-29T04:17:39.003Z,50.834774
2022-07-29T04:18:38.971Z,50.834763
2022-07-29T04:19:38.966Z,50.834793
2022-07-29T04:20:38.976Z,50.834789
2022-07-29T04:21:38.971Z,50.834797
2022-07-29T04:22:38.978Z,50.834801
2022-07-29T04:23:46.006Z,50.834805
2022-07-29T04:24:44.030Z,50.834812
2022-07-29T04:25:38.910Z,50.834785
2022-07-29T04:26:39.695Z,50.834774
2022-07-29T04:27:38.916Z,50.834778
2022-07-29T04:28:38.909Z,50.834770
2022-07-29T04:29:56.850Z,50.834782
2022-07-29T04:30:39.904Z,50.834797
2022-07-29T04:31:38.908Z,50.834812
2022-07-29T04:32:38.872Z,50.834789
2022-07-29T04:33:38.887Z,50.834797
2022-07-29T04:34:38.838Z,50.834812
2022-07-29T04:35:49.914Z,50.834820
2022-07-29T04:36:39.823Z,50.834812
2022-07-29T04:37:38.812Z,50.834789
2022-07-29T04:38:38.837Z,50.834797
2022-07-29T04:39:38.831Z,50.834812
2022-07-29T04:40:38.827Z,50.834793
2022-07-29T04:41:38.782Z,50.834808
2022-07-29T04:42:45.066Z,50.834789
2022-07-29T04:43:39.789Z,50.834805
2022-07-29T04:44:39.657Z,50.834797
2022-07-29T04:45:38.757Z,50.834797
2022-07-29T04:46:38.795Z,50.834793
2022-07-29T04:47:38.767Z,50.834808
2022-07-29T04:48:38.756Z,50.834789
2022-07-29T04:49:39.741Z,50.834805
2022-07-29T04:50:38.732Z,50.834793
2022-07-29T04:51:38.748Z,50.834789
2022-07-29T04:52:38.755Z,50.834801
2022-07-29T04:53:38.732Z,50.834827
2022-07-29T04:54:38.711Z,50.834820
2022-07-29T04:55:39.026Z,50.834820
2022-07-29T04:56:38.699Z,50.834808
2022-07-29T04:57:38.670Z,50.834835
2022-07-29T04:58:38.659Z,50.834820
2022-07-29T04:59:38.662Z,50.834812
2022-07-29T05:00:38.743Z,50.834797
2022-07-29T05:01:38.695Z,50.834797
2022-07-29T05:02:38.727Z,50.834789
2022-07-29T05:03:38.649Z,50.834808
2022-07-29T05:04:38.615Z,50.834793
2022-07-29T05:05:38.637Z,50.834820
2022-07-29T05:06:38.616Z,50.834846
2022-07-29T05:07:38.596Z,50.834831
2022-07-29T05:08:38.580Z,50.834843
2022-07-29T05:09:38.585Z,50.834816
2022-07-29T05:10:38.603Z,50.834808
2022-07-29T05:11:38.561Z,50.834820
2022-07-29T05:12:38.598Z,50.834816
2022-07-29T05:13:46.019Z,50.834824
2022-07-29T05:14:39.546Z,50.834827
2022-07-29T05:15:38.579Z,50.834820
2022-07-29T05:16:38.518Z,50.834785
2022-07-29T05:17:38.519Z,50.834805
2022-07-29T05:18:38.536Z,50.834808
2022-07-29T05:19:39.699Z,50.834789
2022-07-29T05:20:38.504Z,50.834801
2022-07-29T05:21:38.482Z,50.834789
2022-07-29T05:22:38.479Z,50.834805
2022-07-29T05:23:38.482Z,50.834816
2022-07-29T05:24:38.482Z,50.834805
2022-07-29T05:25:43.013Z,50.834824
2022-07-29T05:26:40.188Z,50.834820
2022-07-29T05:27:39.437Z,50.834824
2022-07-29T05:28:38.447Z,50.834805
2022-07-29T05:29:44.028Z,50.834797
2022-07-29T05:30:39.509Z,50.834816
2022-07-29T05:31:38.409Z,50.834824
2022-07-29T05:32:38.397Z,50.834801
2022-07-29T05:33:38.416Z,50.834808
2022-07-29T05:34:38.378Z,50.834805
2022-07-29T05:35:39.360Z,50.834816
2022-07-29T05:36:39.411Z,50.834820
2022-07-29T05:37:38.380Z,50.834808
2022-07-29T05:38:38.380Z,50.834801
2022-07-29T05:39:49.090Z,50.834820
2022-07-29T05:40:40.193Z,50.834816
2022-07-29T05:41:39.330Z,50.834812
2022-07-29T05:42:38.332Z,50.834763
2022-07-29T05:43:38.315Z,50.834816
2022-07-29T05:44:38.332Z,50.834812
2022-07-29T05:45:49.947Z,50.834812
2022-07-29T05:46:39.402Z,50.834801
2022-07-29T05:47:38.287Z,50.834805
2022-07-29T05:48:39.310Z,50.834801
2022-07-29T05:49:38.304Z,50.834797
2022-07-29T05:50:38.274Z,50.834812
2022-07-29T05:51:39.273Z,50.834812
2022-07-29T05:52:39.253Z,50.834816
2022-07-29T05:53:38.241Z,50.834835
2022-07-29T05:54:38.232Z,50.834789
2022-07-29T05:55:38.227Z,50.834797
2022-07-29T05:56:38.226Z,50.834808
2022-07-29T05:57:38.204Z,50.834789
2022-07-29T05:58:38.214Z,50.834808
2022-07-29T05:59:38.202Z,50.834812
2022-07-29T06:00:38.201Z,50.834789
2022-07-29T06:01:38.320Z,50.834782
2022-07-29T06:02:39.125Z,50.834774
2022-07-29T06:03:38.180Z,50.834789
2022-07-29T06:04:38.221Z,50.834797
2022-07-29T06:05:38.151Z,50.834808
2022-07-29T06:06:39.147Z,50.834797
2022-07-29T06:07:38.154Z,50.834808
2022-07-29T06:08:38.147Z,50.834816
2022-07-29T06:09:38.142Z,50.834805
2022-07-29T06:10:38.125Z,50.834820
2022-07-29T06:11:38.135Z,50.834816
2022-07-29T06:12:38.128Z,50.834808
2022-07-29T06:13:38.118Z,50.834805
2022-07-29T06:14:38.091Z,50.834805
2022-07-29T06:15:38.162Z,50.834793
2022-07-29T06:16:38.188Z,50.834824
2022-07-29T06:17:38.103Z,50.834801
2022-07-29T06:18:39.077Z,50.834808
2022-07-29T06:19:38.052Z,50.834789
2022-07-29T06:20:38.077Z,50.834785
2022-07-29T06:21:41.979Z,50.834789
2022-07-29T06:22:38.030Z,50.834789
2022-07-29T06:23:38.086Z,50.834789
2022-07-29T06:24:38.003Z,50.834797
2022-07-29T06:25:38.020Z,50.834793
2022-07-29T06:26:39.914Z,50.834785
2022-07-29T06:27:39.023Z,50.834793
2022-07-29T06:28:37.978Z,50.834801
2022-07-29T06:29:38.025Z,50.834805
2022-07-29T06:30:38.046Z,50.834831
2022-07-29T06:31:38.020Z,50.834801
2022-07-29T06:32:42.712Z,50.834805
2022-07-29T06:33:39.936Z,50.834808
2022-07-29T06:34:37.946Z,50.834808
2022-07-29T06:35:42.454Z,50.834793
2022-07-29T06:36:39.725Z,50.834793
2022-07-29T06:37:37.916Z,50.834789
2022-07-29T06:38:42.864Z,50.834782
2022-07-29T06:39:38.909Z,50.834785
2022-07-29T06:40:37.896Z,50.834782
2022-07-29T06:41:37.895Z,50.834801
2022-07-29T06:42:37.875Z,50.834797
2022-07-29T06:43:42.686Z,50.834797
2022-07-29T06:44:38.883Z,50.834785
2022-07-29T06:45:37.855Z,50.834805
2022-07-29T06:46:37.958Z,50.834785
2022-07-29T06:47:37.878Z,50.834801
2022-07-29T06:48:37.863Z,50.834801
2022-07-29T06:49:37.840Z,50.834801
2022-07-29T06:50:37.824Z,50.834785
2022-07-29T06:51:37.901Z,50.834797
2022-07-29T06:52:37.814Z,50.834789
2022-07-29T06:53:37.795Z,50.834801
2022-07-29T06:54:37.803Z,50.834805
2022-07-29T06:55:37.780Z,50.834797
2022-07-29T06:56:38.927Z,50.834805
2022-07-29T06:57:37.776Z,50.834789
2022-07-29T06:58:37.766Z,50.834805
2022-07-29T06:59:37.756Z,50.834797
2022-07-29T07:00:38.690Z,50.834782
2022-07-29T07:01:37.845Z,50.834778
2022-07-29T07:02:37.786Z,50.834789
2022-07-29T07:03:37.743Z,50.834801
2022-07-29T07:04:37.707Z,50.834793
2022-07-29T07:05:37.716Z,50.834782
2022-07-29T07:06:37.764Z,50.834774
2022-07-29T07:07:37.702Z,50.834789
2022-07-29T07:08:37.706Z,50.834770
2022-07-29T07:09:40.662Z,50.834755
2022-07-29T07:10:37.675Z,50.834755
2022-07-29T07:11:37.700Z,50.834755
2022-07-29T07:12:37.683Z,50.834759
2022-07-29T07:13:37.643Z,50.834755
2022-07-29T07:14:37.825Z,50.834755
2022-07-29T07:15:39.406Z,50.834778
2022-07-29T07:16:37.668Z,50.834785
2022-07-29T07:17:37.612Z,50.834774
2022-07-29T07:18:37.726Z,50.834778
2022-07-29T07:19:37.653Z,50.834778
2022-07-29T07:20:37.603Z,50.834793
2022-07-29T07:21:37.587Z,50.834770
2022-07-29T07:22:39.002Z,50.834770
2022-07-29T07:23:38.580Z,50.834789
2022-07-29T07:24:37.574Z,50.834774
2022-07-29T07:25:37.579Z,50.834778
2022-07-29T07:26:37.552Z,50.834785
2022-07-29T07:27:37.568Z,50.834793
2022-07-29T07:28:37.646Z,50.834801
2022-07-29T07:29:37.547Z,50.834789
2022-07-29T07:30:37.583Z,50.834797
2022-07-29T07:31:37.544Z,50.834766
2022-07-29T07:32:37.518Z,50.834793
2022-07-29T07:33:37.554Z,50.834789
2022-07-29T07:34:37.475Z,50.834782
2022-07-29T07:35:37.465Z,50.834778
2022-07-29T07:36:37.454Z,50.834774
2022-07-29T07:37:37.491Z,50.834770
2022-07-29T07:38:37.466Z,50.834766
2022-07-29T07:39:37.435Z,50.834747
2022-07-29T07:40:37.435Z,50.834766
2022-07-29T07:41:37.424Z,50.834759
2022-07-29T07:42:37.428Z,50.834778
2022-07-29T07:43:37.408Z,50.834782
2022-07-29T07:44:57.184Z,50.834770
2022-07-29T07:45:39.436Z,50.834766
2022-07-29T07:46:37.384Z,50.834797
2022-07-29T07:47:37.367Z,50.834805
2022-07-29T07:48:37.426Z,50.834801
2022-07-29T07:49:37.377Z,50.834812
2022-07-29T07:50:37.363Z,50.834820
2022-07-29T07:51:37.367Z,50.834793
2022-07-29T07:52:37.355Z,50.834770
2022-07-29T07:53:37.352Z,50.834766
2022-07-29T07:54:37.340Z,50.834766
2022-07-29T07:56:07.697Z,50.834778
2022-07-29T07:56:39.310Z,50.834782
2022-07-29T07:57:37.309Z,50.834782
2022-07-29T07:58:37.286Z,50.834778
2022-07-29T07:59:37.332Z,50.834763
2022-07-29T08:00:37.297Z,50.834766
2022-07-29T08:01:47.992Z,50.834759
2022-07-29T08:02:38.280Z,50.834766
2022-07-29T08:03:37.267Z,50.834766
2022-07-29T08:04:37.321Z,50.834770
2022-07-29T08:05:37.229Z,50.834778
2022-07-29T08:06:37.249Z,50.834774
2022-07-29T08:07:37.208Z,50.834789
2022-07-29T08:08:37.225Z,50.834789
2022-07-29T08:09:37.242Z,50.834801
2022-07-29T08:10:37.192Z,50.834774
2022-07-29T08:11:37.740Z,50.834763
2022-07-29T08:12:37.198Z,50.834778
2022-07-29T08:13:37.170Z,50.834770
2022-07-29T08:14:37.185Z,50.834774
2022-07-29T08:15:37.166Z,50.834763
2022-07-29T08:16:37.229Z,50.834755
2022-07-29T08:17:37.155Z,50.834759
2022-07-29T08:18:37.142Z,50.834755
2022-07-29T08:19:37.126Z,50.834763
2022-07-29T08:20:37.677Z,50.834782
2022-07-29T08:21:37.155Z,50.834782
2022-07-29T08:22:37.746Z,50.834797
2022-07-29T08:23:45.961Z,50.834785
2022-07-29T08:24:38.087Z,50.834793
2022-07-29T08:25:38.674Z,50.834797
2022-07-29T08:26:37.083Z,50.834785
2022-07-29T08:27:44.545Z,50.834789
2022-07-29T08:28:39.056Z,50.834770
2022-07-29T08:29:38.064Z,50.834801
2022-07-29T08:30:37.033Z,50.834797
2022-07-29T08:31:37.076Z,50.834812
2022-07-29T08:32:53.177Z,50.834812
2022-07-29T08:33:39.018Z,50.834789
2022-07-29T08:34:37.001Z,50.834824
2022-07-29T08:35:37.001Z,50.834827
2022-07-29T08:36:36.980Z,50.834789
2022-07-29T08:37:37.044Z,50.834808
2022-07-29T08:38:37.009Z,50.834812
2022-07-29T08:39:36.994Z,50.834785
2022-07-29T08:40:36.950Z,50.834801
2022-07-29T08:41:36.958Z,50.834797
2022-07-29T08:42:36.949Z,50.834808
2022-07-29T08:43:36.952Z,50.834797
2022-07-29T08:44:36.940Z,50.834797
2022-07-29T08:45:36.948Z,50.834785
2022-07-29T08:46:36.910Z,50.834766
2022-07-29T08:47:36.911Z,50.834770
2022-07-29T08:48:36.897Z,50.834766
2022-07-29T08:49:36.922Z,50.834774
2022-07-29T08:50:36.896Z,50.834797
2022-07-29T08:51:36.925Z,50.834801
2022-07-29T08:52:37.862Z,50.834820
2022-07-29T08:53:36.851Z,50.834805
2022-07-29T08:54:36.856Z,50.834793
2022-07-29T08:55:36.884Z,50.834827
2022-07-29T08:56:36.825Z,50.834824
2022-07-29T08:57:37.108Z,50.834835
2022-07-29T08:58:38.393Z,50.834831
2022-07-29T08:59:36.843Z,50.834824
2022-07-29T09:00:36.839Z,50.834824
2022-07-29T09:01:42.716Z,50.834820
2022-07-29T09:02:38.792Z,50.834805
2022-07-29T09:03:36.863Z,50.834805
2022-07-29T09:04:36.782Z,50.834835
2022-07-29T09:05:40.625Z,50.834854
2022-07-29T09:06:38.754Z,50.834850
2022-07-29T09:07:36.788Z,50.834827
2022-07-29T09:08:36.761Z,50.834827
2022-07-29T09:09:36.774Z,50.834827
2022-07-29T09:10:36.730Z,50.834850
2022-07-29T09:11:36.747Z,50.834839
2022-07-29T09:12:38.142Z,50.834835
2022-07-29T09:13:37.745Z,50.834835
2022-07-29T09:14:36.731Z,50.834846
2022-07-29T09:15:36.702Z,50.834858
2022-07-29T09:16:52.180Z,50.834846
2022-07-29T09:17:38.755Z,50.834846
2022-07-29T09:18:36.694Z,50.834858
2022-07-29T09:19:36.685Z,50.834850
2022-07-29T09:20:36.656Z,50.834846
2022-07-29T09:21:36.664Z,50.834831
2022-07-29T09:22:41.459Z,50.834858
2022-07-29T09:23:38.644Z,50.834839
2022-07-29T09:24:36.640Z,50.834831
2022-07-29T09:25:36.812Z,50.834820
2022-07-29T09:26:36.609Z,50.834831
2022-07-29T09:27:36.626Z,50.834846
2022-07-29T09:28:36.615Z,50.834835
2022-07-29T09:29:36.621Z,50.834858
2022-07-29T09:30:36.680Z,50.834850
2022-07-29T09:31:36.637Z,50.834843
2022-07-29T09:32:36.585Z,50.834862
2022-07-29T09:33:36.557Z,50.834866
2022-07-29T09:34:36.555Z,50.834835
2022-07-29T09:35:36.557Z,50.834854
2022-07-29T09:36:36.530Z,50.834866
2022-07-29T09:37:36.546Z,50.834850
2022-07-29T09:38:36.525Z,50.834862
2022-07-29T09:39:36.533Z,50.834900
2022-07-29T09:40:36.528Z,50.834850
2022-07-29T09:41:36.532Z,50.834858
2022-07-29T09:42:36.510Z,50.834869
2022-07-29T09:43:36.535Z,50.834854
2022-07-29T09:44:36.532Z,50.834843
2022-07-29T09:45:36.495Z,50.834839
2022-07-29T09:46:37.266Z,50.834843
2022-07-29T09:47:36.464Z,50.834843
2022-07-29T09:48:36.669Z,50.834854
2022-07-29T09:50:08.381Z,50.834846
2022-07-29T09:50:36.487Z,50.834862
2022-07-29T09:51:38.154Z,50.834858
2022-07-29T09:53:08.371Z,50.834839
2022-07-29T09:53:36.434Z,50.834839
2022-07-29T09:54:36.428Z,50.834869
2022-07-29T09:55:36.425Z,50.834862
2022-07-29T09:56:36.413Z,50.834873
2022-07-29T09:57:36.893Z,50.834873
2022-07-29T09:58:36.399Z,50.834888
2022-07-29T09:59:36.362Z,50.834881
2022-07-29T10:00:37.438Z,50.834885
2022-07-29T10:01:36.408Z,50.834892
2022-07-29T10:02:36.341Z,50.834873
2022-07-29T10:03:36.405Z,50.834896
2022-07-29T10:04:36.369Z,50.834869
2022-07-29T10:05:37.105Z,50.834862
2022-07-29T10:06:36.336Z,50.834850
2022-07-29T10:07:36.308Z,50.834854
2022-07-29T10:08:36.341Z,50.834854
2022-07-29T10:09:36.296Z,50.834862
2022-07-29T10:10:36.320Z,50.834846
2022-07-29T10:11:49.033Z,50.834881
2022-07-29T10:12:37.256Z,50.834885
2022-07-29T10:13:36.345Z,50.834877
2022-07-29T10:14:36.252Z,50.834888
2022-07-29T10:15:36.263Z,50.834854
2022-07-29T10:17:08.201Z,50.834873
2022-07-29T10:17:36.227Z,50.834846
2022-07-29T10:18:37.824Z,50.834858
2022-07-29T10:19:36.223Z,50.834888
2022-07-29T10:20:36.930Z,50.834896
2022-07-29T10:21:36.747Z,50.834885
2022-07-29T10:22:52.326Z,50.834892
2022-07-29T10:23:47.013Z,50.834866
2022-07-29T10:24:37.177Z,50.834892
2022-07-29T10:25:37.186Z,50.834858
2022-07-29T10:26:36.175Z,50.834904
2022-07-29T10:27:36.159Z,50.834850
2022-07-29T10:28:36.169Z,50.834862
2022-07-29T10:29:36.173Z,50.834900
2022-07-29T10:30:36.501Z,50.834854
2022-07-29T10:31:36.226Z,50.834908
2022-07-29T10:32:36.154Z,50.834892
2022-07-29T10:33:36.140Z,50.834892
2022-07-29T10:34:36.135Z,50.834885
2022-07-29T10:35:36.088Z,50.834862
2022-07-29T10:36:37.103Z,50.834881
2022-07-29T10:37:36.302Z,50.834858
2022-07-29T10:38:36.822Z,50.834858
2022-07-29T10:39:41.836Z,50.834862
2022-07-29T10:40:37.059Z,50.834839
2022-07-29T10:42:37.064Z,50.834862
2022-07-29T10:43:36.082Z,50.834881
2022-07-29T10:44:36.057Z,50.834881
2022-07-29T10:45:36.826Z,50.834858
2022-07-29T10:46:36.062Z,50.834854
2022-07-29T10:47:36.009Z,50.834854
2022-07-29T10:48:36.010Z,50.834854
2022-07-29T10:49:36.065Z,50.834850
2022-07-29T10:50:36.012Z,50.834866
2022-07-29T10:51:36.001Z,50.834846
2022-07-29T10:52:36.036Z,50.834854
2022-07-29T10:53:35.985Z,50.834835
2022-07-29T10:54:35.967Z,50.834854
2022-07-29T10:55:36.339Z,50.834854
2022-07-29T10:56:35.997Z,50.834846
2022-07-29T10:57:53.653Z,50.834846
2022-07-29T10:58:36.931Z,50.834835
2022-07-29T10:59:36.391Z,50.834850
2022-07-29T11:00:35.930Z,50.834843
2022-07-29T11:01:37.145Z,50.834858
2022-07-29T11:02:41.823Z,50.834854
2022-07-29T11:03:38.871Z,50.834839
2022-07-29T11:04:35.881Z,50.834846
2022-07-29T11:05:40.111Z,50.834846
2022-07-29T11:06:36.915Z,50.834843
2022-07-29T11:07:45.813Z,50.834850
2022-07-29T11:08:36.849Z,50.834854
2022-07-29T11:09:38.350Z,50.834873
2022-07-29T11:10:35.979Z,50.834858
2022-07-29T11:11:35.839Z,50.834858
2022-07-29T11:12:35.850Z,50.834843
2022-07-29T11:13:41.063Z,50.834850
2022-07-29T11:14:38.338Z,50.834862
2022-07-29T11:15:35.842Z,50.834866
2022-07-29T11:16:35.863Z,50.834858
2022-07-29T11:17:46.922Z,50.834858
2022-07-29T11:18:36.858Z,50.834850
2022-07-29T11:19:36.025Z,50.834854
2022-07-29T11:20:37.753Z,50.834835
2022-07-29T11:21:53.466Z,50.834835
2022-07-29T11:22:36.745Z,50.834843
2022-07-29T11:23:36.785Z,50.834839
2022-07-29T11:24:35.924Z,50.834846
2022-07-29T11:25:42.977Z,50.834843
2022-07-29T11:26:36.720Z,50.834843
2022-07-29T11:27:35.806Z,50.834839
2022-07-29T11:28:35.737Z,50.834850
2022-07-29T11:29:39.830Z,50.834843
2022-07-29T11:30:35.757Z,50.834839
2022-07-29T11:31:35.686Z,50.834820
2022-07-29T11:32:35.694Z,50.834808
2022-07-29T11:33:54.615Z,50.834812
2022-07-29T11:34:36.660Z,50.834827
2022-07-29T11:35:38.479Z,50.834820
2022-07-29T11:36:35.686Z,50.834824
2022-07-29T11:37:42.452Z,50.834816
2022-07-29T11:38:38.359Z,50.834824
2022-07-29T11:39:36.839Z,50.834816
2022-07-29T11:40:36.363Z,50.834816
2022-07-29T11:41:35.675Z,50.834808
2022-07-29T11:42:36.537Z,50.834808
2022-07-29T11:43:36.622Z,50.834835
2022-07-29T11:44:36.612Z,50.834820
2022-07-29T11:45:44.413Z,50.834805
2022-07-29T11:46:36.578Z,50.834812
2022-07-29T11:47:36.985Z,50.834824
2022-07-29T11:48:35.577Z,50.834835
2022-07-29T11:49:35.601Z,50.834843
2022-07-29T11:50:35.619Z,50.834827
2022-07-29T11:51:35.556Z,50.834812
2022-07-29T11:52:35.566Z,50.834816
2022-07-29T11:53:37.357Z,50.834824
2022-07-29T11:54:38.764Z,50.834801
2022-07-29T11:55:36.525Z,50.834812
2022-07-29T11:56:36.511Z,50.834797
2022-07-29T11:57:36.198Z,50.834797
2022-07-29T11:58:35.557Z,50.834778
2022-07-29T11:59:35.533Z,50.834785
2022-07-29T12:00:35.495Z,50.834812
2022-07-29T12:01:36.361Z,50.834801
2022-07-29T12:02:37.176Z,50.834785
2022-07-29T12:03:36.787Z,50.834785
2022-07-29T12:04:35.537Z,50.834782
2022-07-29T12:05:36.842Z,50.834782